Time;durP1;ratioP1;P1;durP2;ratioP2;P2;SDS_P1;SDS_P2;PMS_P1;PMS_P2;Temp;Humidity;BMP_temperature;BMP_pressure;BME280_temperature;BME280_humidity;BME280_pressure;Samples;Min_cycle;Max_cycle;Signal;HPM_P1;HPM_P2
2022/06/14 06:07:34;;;;;;;;;;;22.50;75.20;;;;;;6070022;22;19919;-82
2022/06/14 06:10:04;;;;;;;;;;;22.50;75.30;;;;;;5035844;28;20012;-82
2022/06/14 06:12:33;;;;;;;;;;;22.50;75.40;;;;;;5036372;28;19943;-82
2022/06/14 06:15:02;;;;;;;;;;;22.50;75.40;;;;;;5035786;28;20376;-82
2022/06/14 06:17:31;;;;;;;;;;;22.50;75.50;;;;;;5036873;28;19927;-81
2022/06/14 06:20:01;;;;;;;;;;;22.50;75.60;;;;;;5040598;28;20019;-81
2022/06/14 06:22:32;;;;;;;;;;;22.50;75.70;;;;;;5039730;28;19964;-80
2022/06/14 06:25:00;;;;;;;;;;;22.50;75.80;;;;;;5035022;28;20398;-79
2022/06/14 06:27:29;;;;;;;;;;;22.50;75.90;;;;;;5034714;28;19921;-78
2022/06/14 06:30:00;;;;;;;;;;;22.50;76.10;;;;;;5034678;28;19943;-78
2022/06/14 06:32:29;;;;;;;;;;;22.50;76.30;;;;;;5033738;28;19921;-78
2022/06/14 06:34:55;;;;;;;;;;;22.60;76.50;;;;;;5033620;28;20363;-78
2022/06/14 06:37:24;;;;;;;;;;;22.50;76.40;;;;;;5033476;28;19921;-78
2022/06/14 06:39:52;;;;;;;;;;;22.60;76.50;;;;;;5033852;28;19921;-78
2022/06/14 06:42:22;;;;;;;;;;;22.50;76.40;;;;;;5033896;28;19921;-78
2022/06/14 06:44:54;;;;;;;;;;;22.60;77.20;;;;;;5033352;28;19927;-78
2022/06/14 06:47:23;;;;;;;;;;;22.60;76.50;;;;;;5033836;28;19921;-78
2022/06/14 06:50:04;;;;;;;;;;;22.60;76.60;;;;;;5034320;28;20280;-78
2022/06/14 06:52:36;;;;;;;;;;;22.50;76.80;;;;;;5034499;28;19922;-78
2022/06/14 06:55:08;;;;;;;;;;;22.60;77.10;;;;;;5034170;28;19921;-78
2022/06/14 06:57:36;;;;;;;;;;;22.60;77.30;;;;;;5034436;28;19921;-78
2022/06/14 07:00:06;;;;;;;;;;;22.60;77.40;;;;;;5033742;28;19921;-78
2022/06/14 07:02:35;;;;;;;;;;;22.60;77.50;;;;;;5034289;28;19920;-78
2022/06/14 07:05:05;;;;;;;;;;;22.60;77.80;;;;;;5033972;28;20439;-78
2022/06/14 07:07:38;;;;;;;;;;;22.60;77.90;;;;;;5033704;28;20023;-78
2022/06/14 07:10:07;;;;;;;;;;;22.60;78.00;;;;;;5036682;28;19921;-76
2022/06/14 07:12:38;;;;;;;;;;;22.60;78.20;;;;;;5036966;28;19921;-77
2022/06/14 07:15:10;;;;;;;;;;;22.60;78.40;;;;;;5036947;28;19920;-77
2022/06/14 07:17:39;;;;;;;;;;;22.60;78.50;;;;;;5036870;28;19931;-76
2022/06/14 07:20:11;;;;;;;;;;;22.60;78.50;;;;;;5036781;28;19920;-76
2022/06/14 07:22:39;;;;;;;;;;;22.60;78.60;;;;;;5036660;28;20369;-76
2022/06/14 07:25:09;;;;;;;;;;;22.60;78.60;;;;;;5036955;28;19928;-76
2022/06/14 07:27:38;;;;;;;;;;;22.60;79.50;;;;;;5036636;28;19990;-76
2022/06/14 07:30:10;;;;;;;;;;;22.60;78.90;;;;;;5036309;28;20447;-76
2022/06/14 07:32:41;;;;;;;;;;;22.60;78.80;;;;;;5036322;28;20277;-76
2022/06/14 07:35:08;;;;;;;;;;;22.60;78.70;;;;;;5036576;28;20292;-76
2022/06/14 07:37:40;;;;;;;;;;;22.60;78.60;;;;;;5036625;28;19925;-77
2022/06/14 07:40:10;;;;;;;;;;;22.50;78.50;;;;;;5036145;28;19925;-76
2022/06/14 07:42:40;;;;;;;;;;;22.50;78.40;;;;;;5036501;28;20015;-77
2022/06/14 07:45:14;;;;;;;;;;;22.50;78.40;;;;;;5035957;28;20406;-76
2022/06/14 07:47:43;;;;;;;;;;;22.60;78.30;;;;;;5036637;28;19921;-75
2022/06/14 07:50:12;;;;;;;;;;;22.60;78.20;;;;;;5036241;28;19921;-75
2022/06/14 07:52:42;;;;;;;;;;;22.50;77.80;;;;;;5035997;28;19939;-76
2022/06/14 07:55:12;;;;;;;;;;;22.50;77.60;;;;;;5036161;28;19928;-75
2022/06/14 07:57:40;;;;;;;;;;;22.50;77.70;;;;;;5036788;28;19921;-76
2022/06/14 08:03:00;;;;;;;;;;;22.50;77.60;;;;;;5038331;28;19932;-79
2022/06/14 08:05:29;;;;;;;;;;;22.60;77.40;;;;;;5038522;28;19980;-79
2022/06/14 08:07:57;;;;;;;;;;;22.60;77.20;;;;;;5036480;28;20295;-76
2022/06/14 08:10:26;;;;;;;;;;;22.60;76.80;;;;;;5035486;28;19921;-77
2022/06/14 08:12:54;;;;;;;;;;;22.50;76.40;;;;;;5036092;28;19921;-80
2022/06/14 08:15:25;;;;;;;;;;;22.50;76.40;;;;;;5036963;28;20016;-77
2022/06/14 08:17:57;;;;;;;;;;;22.50;76.40;;;;;;5037359;28;20015;-79
2022/06/14 08:20:26;;;;;;;;;;;22.50;76.30;;;;;;5037916;28;19921;-75
2022/06/14 08:22:55;;;;;;;;;;;22.50;76.30;;;;;;5035413;28;20015;-76
2022/06/14 08:25:24;;;;;;;;;;;22.50;76.00;;;;;;5035770;28;20298;-77
2022/06/14 08:27:53;;;;;;;;;;;22.60;75.90;;;;;;5035686;28;19928;-78
2022/06/14 08:30:25;;;;;;;;;;;22.60;75.80;;;;;;5035761;28;19921;-78
2022/06/14 08:32:56;;;;;;;;;;;22.60;75.70;;;;;;5036234;28;19921;-78
2022/06/14 08:35:25;;;;;;;;;;;22.60;75.70;;;;;;5035856;28;19920;-78
2022/06/14 08:37:53;;;;;;;;;;;22.60;75.60;;;;;;5035489;28;19927;-78
2022/06/14 08:40:31;;;;;;;;;;;22.60;75.40;;;;;;5035550;28;19983;-78
2022/06/14 08:42:58;;;;;;;;;;;22.60;75.20;;;;;;5035863;28;19925;-78
2022/06/14 08:45:30;;;;;;;;;;;22.60;75.20;;;;;;5035606;28;19921;-78
2022/06/14 08:48:05;;;;;;;;;;;22.60;75.00;;;;;;5035670;28;19975;-78
2022/06/14 08:50:51;;;;;;;;;;;22.60;74.90;;;;;;5035697;28;19921;-78
2022/06/14 08:53:33;;;;;;;;;;;22.60;74.80;;;;;;5035165;28;19925;-78
2022/06/14 08:56:10;;;;;;;;;;;22.60;74.70;;;;;;5035092;28;19925;-78
2022/06/14 08:58:42;;;;;;;;;;;22.70;74.70;;;;;;5035358;28;19997;-78
2022/06/14 09:01:13;;;;;;;;;;;22.70;74.50;;;;;;5035301;28;19927;-78
2022/06/14 09:03:55;;;;;;;;;;;22.70;74.50;;;;;;5035372;28;19920;-78
2022/06/14 09:06:34;;;;;;;;;;;22.70;74.40;;;;;;5018250;28;19928;-78
2022/06/14 09:09:16;;;;;;;;;;;22.70;74.30;;;;;;5035027;28;19932;-78
2022/06/14 09:11:54;;;;;;;;;;;22.70;74.20;;;;;;5034912;28;19928;-78
2022/06/14 09:14:32;;;;;;;;;;;22.70;74.10;;;;;;5034745;28;19928;-78
2022/06/14 09:17:11;;;;;;;;;;;22.70;74.00;;;;;;5034408;28;19921;-78
2022/06/14 09:19:48;;;;;;;;;;;22.70;73.90;;;;;;5034680;28;20311;-78
2022/06/14 09:22:25;;;;;;;;;;;22.70;73.80;;;;;;5035089;28;19920;-78
2022/06/14 09:24:55;;;;;;;;;;;22.70;73.70;;;;;;5034754;28;19979;-78
2022/06/14 09:27:39;;;;;;;;;;;22.70;73.60;;;;;;5034695;28;19921;-78
2022/06/14 09:30:21;;;;;;;;;;;22.70;73.60;;;;;;5034964;28;19921;-78
2022/06/14 09:33:13;;;;;;;;;;;22.70;73.50;;;;;;5034969;28;19925;-78
2022/06/14 09:35:55;;;;;;;;;;;22.70;73.40;;;;;;5034840;28;19925;-78
2022/06/14 09:38:40;;;;;;;;;;;22.70;73.40;;;;;;5034501;28;20403;-78
2022/06/14 09:41:12;;;;;;;;;;;22.70;73.30;;;;;;5021322;28;19921;-78
2022/06/14 09:43:49;;;;;;;;;;;22.70;73.20;;;;;;5034301;28;19925;-78
2022/06/14 09:46:25;;;;;;;;;;;22.70;73.20;;;;;;5034397;28;20086;-78
2022/06/14 09:49:16;;;;;;;;;;;22.70;73.80;;;;;;5033925;28;19921;-78
2022/06/14 09:51:55;;;;;;;;;;;22.80;73.10;;;;;;5034266;28;19921;-78
2022/06/14 09:54:36;;;;;;;;;;;22.70;72.90;;;;;;5034209;28;19928;-78
2022/06/14 09:57:18;;;;;;;;;;;22.80;73.00;;;;;;5034136;28;19943;-78
2022/06/14 09:59:52;;;;;;;;;;;22.70;72.90;;;;;;5030672;28;19921;-78
2022/06/14 10:02:23;;;;;;;;;;;22.70;72.80;;;;;;5034014;28;19921;-78
2022/06/14 10:05:05;;;;;;;;;;;22.80;72.90;;;;;;5034073;28;19921;-78
2022/06/14 10:07:47;;;;;;;;;;;22.80;72.80;;;;;;5034028;28;19921;-78
2022/06/14 10:10:19;;;;;;;;;;;22.70;72.70;;;;;;5030711;28;20365;-78
2022/06/14 10:12:59;;;;;;;;;;;22.70;72.60;;;;;;5033753;28;19921;-78
2022/06/14 10:15:33;;;;;;;;;;;22.80;72.60;;;;;;5033844;28;19927;-78
2022/06/14 10:18:05;;;;;;;;;;;22.80;72.60;;;;;;5033949;28;19925;-78
2022/06/14 10:20:49;;;;;;;;;;;22.80;72.60;;;;;;5033720;28;19921;-78
2022/06/14 10:23:31;;;;;;;;;;;22.80;72.50;;;;;;5034087;28;19921;-78
2022/06/14 10:28:56;;;;;;;;;;;22.80;72.50;;;;;;5033744;28;19927;-78
2022/06/14 10:31:31;;;;;;;;;;;22.80;72.40;;;;;;5033761;28;20024;-78
2022/06/14 10:34:01;;;;;;;;;;;22.80;72.40;;;;;;5034075;28;19925;-78
2022/06/14 10:36:45;;;;;;;;;;;22.80;72.30;;;;;;5033752;28;19929;-78
2022/06/14 10:39:21;;;;;;;;;;;22.80;72.30;;;;;;5033894;28;19921;-78
2022/06/14 10:41:53;;;;;;;;;;;22.80;72.20;;;;;;5034950;28;20402;-78
2022/06/14 10:44:21;;;;;;;;;;;22.80;72.20;;;;;;5036707;28;19921;-78
2022/06/14 10:46:55;;;;;;;;;;;22.80;72.10;;;;;;5037452;28;19924;-78
2022/06/14 10:49:38;;;;;;;;;;;22.80;72.10;;;;;;5037469;28;19921;-78
2022/06/14 10:52:24;;;;;;;;;;;22.80;72.10;;;;;;5037414;28;19925;-78
2022/06/14 10:54:59;;;;;;;;;;;22.80;72.00;;;;;;5037336;28;19921;-78
2022/06/14 10:57:37;;;;;;;;;;;22.80;72.00;;;;;;5037959;28;19921;-78
2022/06/14 11:00:07;;;;;;;;;;;22.80;72.00;;;;;;5037373;28;20346;-78
2022/06/14 11:02:50;;;;;;;;;;;22.80;72.00;;;;;;5038083;28;20436;-78
2022/06/14 11:05:21;;;;;;;;;;;22.90;72.00;;;;;;5039700;28;20365;-78
2022/06/14 11:07:55;;;;;;;;;;;22.80;71.90;;;;;;5037336;28;20372;-78
2022/06/14 11:10:31;;;;;;;;;;;22.90;71.90;;;;;;5036758;28;19927;-78
2022/06/14 11:13:02;;;;;;;;;;;22.90;71.90;;;;;;5037293;28;19932;-78
2022/06/14 11:15:32;;;;;;;;;;;22.80;71.70;;;;;;5037453;28;19925;-78
2022/06/14 11:18:18;;;;;;;;;;;22.80;71.70;;;;;;5036832;28;19925;-78
2022/06/14 11:20:49;;;;;;;;;;;22.90;71.70;;;;;;5036490;28;19920;-78
2022/06/14 11:23:19;;;;;;;;;;;22.80;71.70;;;;;;5036634;28;20273;-78
2022/06/14 11:25:50;;;;;;;;;;;22.80;71.60;;;;;;5037880;28;19927;-77
2022/06/14 11:28:23;;;;;;;;;;;22.80;71.60;;;;;;5038595;28;20315;-78
2022/06/14 11:30:53;;;;;;;;;;;22.90;71.60;;;;;;5036988;28;19929;-78
2022/06/14 11:33:30;;;;;;;;;;;22.80;71.50;;;;;;5036663;28;19921;-78
2022/06/14 11:36:09;;;;;;;;;;;22.90;71.60;;;;;;5036667;28;19943;-78
2022/06/14 11:38:54;;;;;;;;;;;22.80;71.40;;;;;;5036621;28;19925;-78
2022/06/14 11:41:21;;;;;;;;;;;22.80;71.40;;;;;;5036326;28;20369;-78
2022/06/14 11:43:54;;;;;;;;;;;22.80;71.30;;;;;;5036259;28;20379;-78
2022/06/14 11:46:24;;;;;;;;;;;22.80;71.30;;;;;;5036250;28;20394;-78
2022/06/14 11:48:56;;;;;;;;;;;22.90;71.40;;;;;;5036131;28;20302;-78
2022/06/14 11:51:26;;;;;;;;;;;22.90;71.40;;;;;;5036596;28;19960;-78
2022/06/14 11:54:09;;;;;;;;;;;22.90;71.30;;;;;;5035767;28;19921;-78
2022/06/14 11:56:41;;;;;;;;;;;22.90;71.30;;;;;;5036505;28;19932;-79
2022/06/14 11:59:22;;;;;;;;;;;22.90;71.30;;;;;;5036450;28;20019;-79
2022/06/14 12:01:56;;;;;;;;;;;22.90;71.30;;;;;;5036356;28;19925;-78
2022/06/14 12:04:32;;;;;;;;;;;22.90;71.30;;;;;;5036458;28;19932;-78
2022/06/14 12:06:59;;;;;;;;;;;22.90;71.20;;;;;;5036303;28;19921;-78
2022/06/14 12:09:39;;;;;;;;;;;22.90;71.20;;;;;;5035688;28;20460;-78
2022/06/14 12:12:10;;;;;;;;;;;22.90;71.10;;;;;;5036112;28;19921;-78
2022/06/14 12:14:46;;;;;;;;;;;22.90;71.10;;;;;;5035974;28;19921;-78
2022/06/14 12:17:19;;;;;;;;;;;22.90;71.00;;;;;;5036176;28;20011;-78
2022/06/14 12:19:52;;;;;;;;;;;22.90;71.00;;;;;;5036345;28;19960;-78
2022/06/14 12:22:34;;;;;;;;;;;22.90;70.90;;;;;;5035934;28;19921;-78
2022/06/14 12:27:52;;;;;;;;;;;22.90;70.90;;;;;;5036337;28;19923;-78
2022/06/14 12:30:18;;;;;;;;;;;22.90;70.90;;;;;;5036309;28;19921;-78
2022/06/14 12:32:51;;;;;;;;;;;22.90;70.90;;;;;;5035762;28;19943;-78
2022/06/14 12:35:22;;;;;;;;;;;22.90;70.90;;;;;;5036429;28;19928;-78
2022/06/14 12:37:50;;;;;;;;;;;22.90;70.90;;;;;;5036547;28;19921;-78
2022/06/14 12:40:21;;;;;;;;;;;22.90;70.90;;;;;;5035767;28;19921;-78
2022/06/14 12:42:52;;;;;;;;;;;22.90;70.90;;;;;;5035823;28;19921;-78
2022/06/14 12:45:20;;;;;;;;;;;22.90;70.90;;;;;;5035549;28;19931;-78
2022/06/14 12:47:54;;;;;;;;;;;22.90;70.90;;;;;;5035391;28;19921;-78
2022/06/14 12:50:24;;;;;;;;;;;23.00;71.00;;;;;;5035061;28;20300;-78
2022/06/14 12:52:54;;;;;;;;;;;23.00;71.00;;;;;;5035444;28;19929;-78
2022/06/14 12:55:22;;;;;;;;;;;23.00;71.00;;;;;;5035207;28;19921;-78
2022/06/14 12:58:03;;;;;;;;;;;23.00;71.00;;;;;;5035248;28;19925;-78
2022/06/14 13:00:35;;;;;;;;;;;23.00;71.00;;;;;;5034870;28;20284;-78
2022/06/14 13:03:06;;;;;;;;;;;23.00;71.00;;;;;;5035169;28;19921;-79
2022/06/14 13:05:35;;;;;;;;;;;23.00;71.00;;;;;;5034254;28;19927;-78
2022/06/14 13:08:12;;;;;;;;;;;23.00;71.00;;;;;;5035023;28;19927;-78
2022/06/14 13:10:46;;;;;;;;;;;23.00;71.10;;;;;;5035112;28;19967;-78
2022/06/14 13:13:23;;;;;;;;;;;23.00;71.90;;;;;;5034676;28;20438;-78
2022/06/14 13:15:56;;;;;;;;;;;23.00;71.00;;;;;;5034804;28;20369;-78
2022/06/14 13:18:33;;;;;;;;;;;23.00;71.20;;;;;;5034774;28;20295;-78
2022/06/14 13:21:09;;;;;;;;;;;23.10;71.30;;;;;;5034763;28;19921;-78
2022/06/14 13:23:39;;;;;;;;;;;23.10;71.40;;;;;;5034428;28;20427;-78
2022/06/14 13:26:14;;;;;;;;;;;23.10;71.50;;;;;;5034725;28;19921;-78
2022/06/14 13:28:49;;;;;;;;;;;23.10;71.50;;;;;;5034546;28;19921;-78
2022/06/14 13:31:27;;;;;;;;;;;23.10;71.50;;;;;;5034511;28;19927;-78
2022/06/14 13:34:01;;;;;;;;;;;23.10;71.50;;;;;;5034396;28;20292;-78
2022/06/14 13:36:34;;;;;;;;;;;23.10;71.50;;;;;;5034527;28;19928;-78
2022/06/14 13:39:05;;;;;;;;;;;23.10;71.50;;;;;;5034754;28;19927;-78
2022/06/14 13:41:35;;;;;;;;;;;23.10;71.50;;;;;;5034628;28;19921;-78
2022/06/14 13:44:05;;;;;;;;;;;23.20;71.60;;;;;;5034810;28;19921;-78
2022/06/14 13:46:34;;;;;;;;;;;23.10;71.50;;;;;;5034713;28;19978;-78
2022/06/14 13:49:05;;;;;;;;;;;23.20;71.50;;;;;;5034342;28;19921;-78
2022/06/14 13:51:36;;;;;;;;;;;23.20;71.50;;;;;;5034482;28;19928;-78
2022/06/14 13:54:08;;;;;;;;;;;23.20;71.30;;;;;;5034409;28;19921;-78
2022/06/14 13:56:40;;;;;;;;;;;23.20;71.20;;;;;;5034662;28;19921;-78
2022/06/14 13:59:11;;;;;;;;;;;23.20;71.20;;;;;;5035211;28;19921;-78
2022/06/14 14:01:40;;;;;;;;;;;23.20;71.20;;;;;;5034725;28;19943;-78
2022/06/14 14:04:11;;;;;;;;;;;23.20;71.20;;;;;;5034986;28;19928;-78
2022/06/14 14:06:41;;;;;;;;;;;23.20;71.20;;;;;;5035138;28;19929;-78
2022/06/14 14:09:16;;;;;;;;;;;23.20;71.20;;;;;;5034857;28;19921;-78
2022/06/14 14:11:49;;;;;;;;;;;23.20;71.20;;;;;;5035169;28;19921;-78
2022/06/14 14:14:21;;;;;;;;;;;23.10;71.20;;;;;;5035278;28;19990;-78
2022/06/14 14:16:51;;;;;;;;;;;23.10;71.20;;;;;;5034755;28;19921;-78
2022/06/14 14:19:26;;;;;;;;;;;23.10;71.10;;;;;;5038025;28;20307;-78
2022/06/14 14:21:57;;;;;;;;;;;23.10;71.10;;;;;;5038057;28;19927;-78
2022/06/14 14:24:31;;;;;;;;;;;23.10;71.10;;;;;;5038018;28;19928;-78
2022/06/14 14:27:00;;;;;;;;;;;23.10;71.10;;;;;;5037942;28;19925;-78
2022/06/14 14:29:30;;;;;;;;;;;23.10;71.10;;;;;;5038028;28;20012;-78
2022/06/14 14:31:58;;;;;;;;;;;23.10;71.00;;;;;;5039492;28;19928;-78
2022/06/14 14:34:26;;;;;;;;;;;23.10;70.90;;;;;;5038590;28;20345;-78
2022/06/14 14:36:57;;;;;;;;;;;23.10;70.80;;;;;;5037796;28;19924;-78
2022/06/14 14:39:35;;;;;;;;;;;23.10;70.80;;;;;;5037490;28;20369;-78
2022/06/14 14:42:04;;;;;;;;;;;23.10;70.70;;;;;;5037608;28;19920;-78
2022/06/14 14:44:35;;;;;;;;;;;23.10;70.70;;;;;;5037209;28;20395;-78
2022/06/14 14:47:05;;;;;;;;;;;23.10;70.60;;;;;;5037766;28;20265;-78
2022/06/14 14:49:36;;;;;;;;;;;23.10;70.60;;;;;;5037205;28;20433;-78
2022/06/14 14:52:09;;;;;;;;;;;23.10;70.60;;;;;;5037287;28;19928;-78
2022/06/14 14:54:40;;;;;;;;;;;23.10;70.50;;;;;;5037656;28;19927;-78
2022/06/14 14:57:11;;;;;;;;;;;23.10;70.50;;;;;;5039241;28;20373;-78
2022/06/14 14:59:41;;;;;;;;;;;23.10;70.40;;;;;;5037986;28;20372;-78
2022/06/14 15:05:23;;;;;;;;;;;23.10;70.40;;;;;;5037066;28;19923;-78
2022/06/14 15:07:53;;;;;;;;;;;23.10;70.40;;;;;;5037237;28;19925;-78
2022/06/14 15:10:22;;;;;;;;;;;23.10;70.40;;;;;;5037096;28;19924;-78
2022/06/14 15:12:50;;;;;;;;;;;23.10;70.40;;;;;;5036822;28;19975;-78
2022/06/14 15:15:19;;;;;;;;;;;23.00;70.30;;;;;;5036997;28;19921;-78
2022/06/14 15:20:31;;;;;;;;;;;23.00;70.20;;;;;;5036992;28;19928;-78
2022/06/14 15:22:59;;;;;;;;;;;23.10;70.40;;;;;;5036578;28;19925;-78
2022/06/14 15:25:28;;;;;;;;;;;23.00;70.20;;;;;;5036835;28;19928;-78
2022/06/14 15:27:59;;;;;;;;;;;23.00;70.20;;;;;;5036493;28;19921;-78
2022/06/14 15:30:37;;;;;;;;;;;23.00;70.20;;;;;;5035776;28;20020;-78
2022/06/14 15:33:13;;;;;;;;;;;23.00;70.20;;;;;;5036852;28;19927;-78
2022/06/14 15:35:48;;;;;;;;;;;23.00;70.20;;;;;;5036515;28;19931;-78
2022/06/14 15:38:26;;;;;;;;;;;23.00;70.20;;;;;;5036302;28;19920;-78
2022/06/14 15:41:08;;;;;;;;;;;23.00;70.20;;;;;;5036639;28;20343;-78
2022/06/14 15:43:35;;;;;;;;;;;23.00;70.20;;;;;;5036594;28;19921;-78
2022/06/14 15:46:02;;;;;;;;;;;23.00;70.20;;;;;;5036492;28;19943;-78
2022/06/14 15:48:31;;;;;;;;;;;23.00;70.30;;;;;;5036465;28;19921;-78
2022/06/14 15:50:59;;;;;;;;;;;23.00;70.30;;;;;;5036518;28;20016;-78
2022/06/14 15:53:34;;;;;;;;;;;23.00;70.20;;;;;;5036405;28;19920;-78
2022/06/14 15:56:01;;;;;;;;;;;23.00;70.20;;;;;;5036005;28;20349;-78
2022/06/14 15:58:30;;;;;;;;;;;23.00;70.20;;;;;;5036348;28;20008;-78
2022/06/14 16:00:58;;;;;;;;;;;23.00;70.30;;;;;;5035981;28;20015;-78
2022/06/14 16:03:30;;;;;;;;;;;23.00;70.30;;;;;;5035738;28;20391;-78
2022/06/14 16:05:59;;;;;;;;;;;23.00;70.30;;;;;;5036025;28;19943;-78
2022/06/14 16:08:27;;;;;;;;;;;23.00;71.10;;;;;;5035628;28;20016;-78
2022/06/14 16:10:56;;;;;;;;;;;23.00;70.30;;;;;;5036023;28;19921;-78
2022/06/14 16:13:25;;;;;;;;;;;23.00;70.30;;;;;;5035923;28;19928;-78
2022/06/14 16:15:54;;;;;;;;;;;23.00;70.40;;;;;;5036566;28;20291;-78
2022/06/14 16:18:29;;;;;;;;;;;23.00;70.40;;;;;;5035880;28;19931;-78
2022/06/14 16:20:57;;;;;;;;;;;23.00;70.40;;;;;;5035777;28;19921;-78
2022/06/14 16:23:24;;;;;;;;;;;23.00;70.40;;;;;;5035630;28;19939;-78
2022/06/14 16:25:55;;;;;;;;;;;23.00;70.40;;;;;;5035529;28;19925;-78
2022/06/14 16:28:25;;;;;;;;;;;23.00;70.50;;;;;;5035239;28;19921;-78
2022/06/14 16:30:54;;;;;;;;;;;23.00;70.50;;;;;;5035545;28;19921;-78
2022/06/14 16:33:24;;;;;;;;;;;23.00;70.50;;;;;;5035332;28;19925;-78
2022/06/14 16:35:54;;;;;;;;;;;23.00;70.50;;;;;;5035219;28;20410;-78
2022/06/14 16:38:30;;;;;;;;;;;23.00;70.50;;;;;;5035374;28;19976;-78
2022/06/14 16:41:02;;;;;;;;;;;23.00;70.60;;;;;;5035584;28;20007;-78
2022/06/14 16:43:39;;;;;;;;;;;23.00;70.60;;;;;;5035087;28;19928;-78
2022/06/14 16:46:08;;;;;;;;;;;23.00;70.60;;;;;;5035375;28;20001;-78
2022/06/14 16:48:43;;;;;;;;;;;23.00;70.60;;;;;;5035152;28;19964;-78
2022/06/14 16:51:13;;;;;;;;;;;23.00;70.60;;;;;;5035228;28;19928;-78
2022/06/14 16:53:42;;;;;;;;;;;23.00;70.60;;;;;;5034975;28;19928;-78
2022/06/14 16:56:14;;;;;;;;;;;23.00;70.60;;;;;;5035101;28;20011;-78
2022/06/14 16:58:44;;;;;;;;;;;23.00;70.70;;;;;;5034726;28;20290;-78
2022/06/14 17:01:16;;;;;;;;;;;23.00;70.70;;;;;;5034763;28;19925;-78
2022/06/14 17:03:45;;;;;;;;;;;23.00;70.70;;;;;;5034912;28;19927;-78
2022/06/14 17:06:31;;;;;;;;;;;23.00;70.80;;;;;;5035023;28;19921;-78
2022/06/14 17:09:08;;;;;;;;;;;23.00;70.80;;;;;;5034479;28;19925;-78
2022/06/14 17:11:38;;;;;;;;;;;23.00;70.90;;;;;;5034869;28;19924;-78
2022/06/14 17:14:13;;;;;;;;;;;22.90;70.80;;;;;;5034858;28;19921;-78
2022/06/14 17:16:42;;;;;;;;;;;23.00;70.90;;;;;;5034455;28;19927;-78
2022/06/14 17:19:15;;;;;;;;;;;23.00;71.00;;;;;;5034652;28;19925;-78
2022/06/14 17:21:46;;;;;;;;;;;23.00;71.00;;;;;;5034644;28;20347;-78
2022/06/14 17:24:16;;;;;;;;;;;22.90;70.80;;;;;;5034349;28;19927;-78
2022/06/14 17:32:26;;;;;;;;;;;22.90;70.90;;;;;;5034376;28;20391;-78
2022/06/14 17:34:55;;;;;;;;;;;22.90;70.90;;;;;;5034189;28;19921;-78
2022/06/14 17:37:24;;;;;;;;;;;22.90;70.90;;;;;;5034351;28;19921;-78
2022/06/14 17:39:53;;;;;;;;;;;23.00;71.00;;;;;;5034377;28;19921;-79
2022/06/14 17:42:22;;;;;;;;;;;22.90;70.90;;;;;;5034068;28;19961;-79
2022/06/14 17:44:53;;;;;;;;;;;23.00;71.00;;;;;;5034040;28;20376;-79
2022/06/14 17:47:21;;;;;;;;;;;22.90;70.90;;;;;;5033959;28;19920;-78
2022/06/14 17:49:51;;;;;;;;;;;22.90;70.90;;;;;;5034227;28;19921;-78
2022/06/14 17:52:21;;;;;;;;;;;22.90;70.90;;;;;;5033426;28;19922;-78
2022/06/14 17:54:50;;;;;;;;;;;23.00;71.00;;;;;;5034152;28;19921;-78
2022/06/14 17:57:23;;;;;;;;;;;22.90;70.90;;;;;;5033668;28;19925;-78
2022/06/14 18:00:09;;;;;;;;;;;22.90;70.90;;;;;;5034174;28;19920;-78
2022/06/14 18:02:41;;;;;;;;;;;22.90;70.90;;;;;;5034052;28;19921;-78
2022/06/14 18:05:08;;;;;;;;;;;22.90;70.90;;;;;;5034102;28;19928;-78
2022/06/14 18:07:44;;;;;;;;;;;22.90;70.90;;;;;;5033935;28;19927;-78
2022/06/14 18:10:20;;;;;;;;;;;23.00;71.00;;;;;;5033665;28;19928;-78
2022/06/14 18:12:50;;;;;;;;;;;22.90;70.90;;;;;;5034000;28;20307;-78
2022/06/14 18:15:22;;;;;;;;;;;22.90;70.90;;;;;;5033954;28;20284;-78
2022/06/14 18:17:49;;;;;;;;;;;22.90;70.90;;;;;;5033822;28;19987;-78
2022/06/14 18:23:09;;;;;;;;;;;22.90;70.90;;;;;;5033604;28;19928;-78
2022/06/14 18:25:55;;;;;;;;;;;22.90;70.90;;;;;;5033628;28;19921;-78
2022/06/14 18:28:24;;;;;;;;;;;22.90;70.90;;;;;;5033434;28;20367;-78
2022/06/14 18:30:52;;;;;;;;;;;22.90;70.90;;;;;;5033517;28;19925;-79
2022/06/14 18:33:21;;;;;;;;;;;22.90;70.90;;;;;;5033452;28;19928;-79
2022/06/14 18:35:54;;;;;;;;;;;22.90;70.90;;;;;;5033845;28;20460;-79
2022/06/14 18:38:36;;;;;;;;;;;22.90;70.90;;;;;;5034380;28;20284;-79
2022/06/14 18:41:21;;;;;;;;;;;22.90;70.90;;;;;;5034345;28;20383;-79
2022/06/14 18:44:06;;;;;;;;;;;22.90;70.90;;;;;;5034195;28;19921;-79
2022/06/14 18:46:35;;;;;;;;;;;22.90;70.90;;;;;;5033830;28;19988;-79
2022/06/14 18:49:04;;;;;;;;;;;22.90;70.90;;;;;;5034734;28;19925;-79
2022/06/14 18:51:34;;;;;;;;;;;22.90;70.90;;;;;;5034958;28;19974;-79
2022/06/14 18:54:05;;;;;;;;;;;22.80;70.80;;;;;;5034231;28;19979;-79
2022/06/14 18:56:36;;;;;;;;;;;22.90;70.90;;;;;;5033963;28;20332;-79
2022/06/14 18:59:04;;;;;;;;;;;22.90;70.90;;;;;;5034083;28;19920;-79
2022/06/14 19:01:32;;;;;;;;;;;22.90;70.90;;;;;;5034691;28;19921;-80
2022/06/14 19:04:04;;;;;;;;;;;22.80;70.80;;;;;;5034398;28;20376;-79
2022/06/14 19:06:49;;;;;;;;;;;22.90;70.90;;;;;;5037724;28;19928;-78
2022/06/14 19:09:20;;;;;;;;;;;22.80;70.80;;;;;;5036759;28;19921;-78
2022/06/14 19:11:52;;;;;;;;;;;22.80;70.80;;;;;;5037322;28;19921;-78
2022/06/14 19:14:46;;;;;;;;;;;22.90;70.90;;;;;;5037844;28;19927;-76
2022/06/14 19:17:17;;;;;;;;;;;22.90;70.90;;;;;;4990233;28;19975;-77
2022/06/14 19:19:56;;;;;;;;;;;22.90;70.90;;;;;;5037530;28;19927;-78
2022/06/14 19:22:30;;;;;;;;;;;22.80;70.80;;;;;;5038649;28;19931;-78
2022/06/14 19:25:04;;;;;;;;;;;22.80;70.80;;;;;;5040123;28;19921;-79
2022/06/14 19:27:35;;;;;;;;;;;22.90;70.90;;;;;;5039990;28;20015;-79
2022/06/14 19:30:09;;;;;;;;;;;22.80;70.80;;;;;;5040861;28;19924;-79
2022/06/14 19:32:42;;;;;;;;;;;22.80;70.80;;;;;;5039530;28;20355;-82
2022/06/14 19:35:18;;;;;;;;;;;22.70;70.40;;;;;;5038154;28;20432;-82
2022/06/14 19:37:47;;;;;;;;;;;22.70;70.10;;;;;;5037956;28;20283;-82
2022/06/14 19:40:15;;;;;;;;;;;22.70;69.90;;;;;;5038156;28;19921;-82
2022/06/14 19:42:44;;;;;;;;;;;22.70;69.70;;;;;;5042489;28;20023;-79
2022/06/14 19:45:13;;;;;;;;;;;22.70;69.40;;;;;;5045815;28;19952;-79
2022/06/14 19:47:43;;;;;;;;;;;22.70;69.30;;;;;;5043472;28;19927;-80
2022/06/14 19:50:20;;;;;;;;;;;22.60;69.20;;;;;;5040394;28;19921;-79
2022/06/14 19:52:49;;;;;;;;;;;22.70;69.30;;;;;;5040165;28;19925;-79
2022/06/14 19:55:32;;;;;;;;;;;22.70;69.10;;;;;;5043013;28;20432;-80
2022/06/14 19:58:06;;;;;;;;;;;22.70;69.00;;;;;;5043741;28;19979;-81
2022/06/14 20:00:39;;;;;;;;;;;22.70;68.90;;;;;;5043136;28;19932;-81
2022/06/14 20:03:05;;;;;;;;;;;22.70;68.90;;;;;;5039885;28;20024;-81
2022/06/14 20:05:38;;;;;;;;;;;22.70;68.80;;;;;;5038046;28;19964;-80
2022/06/14 20:08:05;;;;;;;;;;;22.70;68.70;;;;;;5039894;28;20004;-80
2022/06/14 20:10:39;;;;;;;;;;;22.70;68.60;;;;;;5040231;28;20337;-80
2022/06/14 20:13:10;;;;;;;;;;;22.70;68.50;;;;;;5038475;28;20287;-81
2022/06/14 20:15:38;;;;;;;;;;;22.70;68.40;;;;;;5037949;28;19921;-80
2022/06/14 20:18:08;;;;;;;;;;;22.70;68.40;;;;;;5040900;28;19921;-81
2022/06/14 20:20:37;;;;;;;;;;;22.70;68.40;;;;;;5038061;28;19921;-80
2022/06/14 20:23:05;;;;;;;;;;;22.70;68.30;;;;;;5036504;28;20389;-79
2022/06/14 20:25:33;;;;;;;;;;;22.80;68.50;;;;;;5035809;28;19921;-79
2022/06/14 20:28:01;;;;;;;;;;;22.70;68.30;;;;;;5036418;28;19928;-79
2022/06/14 20:30:31;;;;;;;;;;;22.70;68.30;;;;;;5036820;28;19928;-79
2022/06/14 20:32:57;;;;;;;;;;;22.80;68.30;;;;;;5036063;28;19921;-79
2022/06/14 20:35:32;;;;;;;;;;;22.80;68.40;;;;;;5035598;28;19968;-78
2022/06/14 20:38:01;;;;;;;;;;;22.80;68.30;;;;;;5035516;28;19979;-78
2022/06/14 20:40:31;;;;;;;;;;;22.70;68.20;;;;;;5035393;28;19921;-78
2022/06/14 20:42:58;;;;;;;;;;;22.80;68.30;;;;;;5035071;28;20365;-78
2022/06/14 20:45:25;;;;;;;;;;;22.80;68.40;;;;;;5035332;28;20004;-78
2022/06/14 20:47:52;;;;;;;;;;;22.80;68.40;;;;;;5037471;28;20031;-80
2022/06/14 20:50:21;;;;;;;;;;;22.80;68.40;;;;;;5035391;28;20011;-76
2022/06/14 20:52:48;;;;;;;;;;;22.80;68.50;;;;;;5035143;28;19921;-77
2022/06/14 20:55:15;;;;;;;;;;;22.80;68.50;;;;;;5035133;28;19972;-77
2022/06/14 20:57:46;;;;;;;;;;;22.80;68.60;;;;;;5034982;28;19964;-77
2022/06/14 21:00:13;;;;;;;;;;;22.80;68.60;;;;;;5035033;28;20086;-77
2022/06/14 21:02:42;;;;;;;;;;;22.80;68.70;;;;;;5037329;28;20376;-77
2022/06/14 21:05:10;;;;;;;;;;;22.80;68.70;;;;;;5034957;28;19921;-77
2022/06/14 21:07:37;;;;;;;;;;;22.90;68.80;;;;;;5034682;28;19921;-78
2022/06/14 21:10:05;;;;;;;;;;;22.90;68.90;;;;;;5034508;28;20016;-78
2022/06/14 21:12:33;;;;;;;;;;;22.80;68.90;;;;;;5034811;28;19943;-77
2022/06/14 21:15:03;;;;;;;;;;;22.80;68.90;;;;;;5034432;28;20292;-77